Time;durP1;ratioP1;P1;durP2;ratioP2;P2;SDS_P1;SDS_P2;PMS_P1;PMS_P2;Temp;Humidity;BMP_temperature;BMP_pressure;BME280_temperature;BME280_humidity;BME280_pressure;Samples;Min_cycle;Max_cycle;Signal;HPM_P1;HPM_P2
2023/06/20 00:02:07;;;;;;;8.00;7.23;;;;;;;21.39;100.00;97696.56;5073827;28;20207;-87
2023/06/20 00:04:35;;;;;;;8.33;7.53;;;;;;;21.39;100.00;97689.31;5074198;28;20583;-87
2023/06/20 00:07:01;;;;;;;8.20;7.37;;;;;;;21.41;100.00;97706.09;5073984;28;20234;-87
2023/06/20 00:09:28;;;;;;;8.43;7.63;;;;;;;21.41;100.00;97703.41;5074004;28;20235;-87
2023/06/20 00:11:54;;;;;;;8.83;8.00;;;;;;;21.43;100.00;97705.91;5074535;28;20203;-87
2023/06/20 00:14:21;;;;;;;8.00;7.20;;;;;;;21.47;100.00;97721.47;5073669;28;20210;-87
2023/06/20 00:16:47;;;;;;;8.20;7.47;;;;;;;21.54;100.00;97730.50;5073673;28;20245;-87
2023/06/20 00:19:14;;;;;;;8.73;7.93;;;;;;;21.67;100.00;97738.81;5073232;28;20303;-87
2023/06/20 00:21:42;;;;;;;9.10;7.47;;;;;;;21.79;100.00;97753.47;5073503;28;20214;-87
2023/06/20 00:24:09;;;;;;;8.67;7.87;;;;;;;21.82;100.00;97752.25;5073528;28;20207;-89
2023/06/20 00:26:36;;;;;;;8.53;7.67;;;;;;;21.83;100.00;97748.56;5073592;28;20646;-87
2023/06/20 00:29:02;;;;;;;11.53;8.73;;;;;;;21.90;99.92;97761.09;5073348;28;20214;-87
2023/06/20 00:31:29;;;;;;;8.30;7.50;;;;;;;21.94;99.17;97759.66;5073298;28;20710;-87
2023/06/20 00:33:55;;;;;;;8.60;7.80;;;;;;;21.99;98.76;97772.56;5073717;28;20214;-87
2023/06/20 00:36:25;;;;;;;9.20;8.30;;;;;;;22.05;97.70;97786.13;5073176;28;20218;-87
2023/06/20 00:38:53;;;;;;;9.50;8.53;;;;;;;22.09;96.40;97786.59;5073311;28;20219;-89
2023/06/20 00:41:20;;;;;;;8.73;7.83;;;;;;;22.16;95.16;97804.50;5072780;28;20199;-87
2023/06/20 00:43:47;;;;;;;8.97;8.10;;;;;;;22.24;91.96;97828.63;5073067;28;20207;-87
2023/06/20 00:46:16;;;;;;;8.10;7.30;;;;;;;22.31;88.34;97840.34;5073465;28;20237;-87
2023/06/20 00:48:43;;;;;;;7.40;6.50;;;;;;;22.41;85.67;97864.28;5073202;28;20211;-88
2023/06/20 00:51:10;;;;;;;8.97;6.57;;;;;;;22.38;90.21;97870.88;5072621;28;20235;-87
2023/06/20 00:53:37;;;;;;;8.70;6.90;;;;;;;22.21;94.80;97861.34;5073387;28;20215;-88
2023/06/20 00:56:06;;;;;;;8.97;6.70;;;;;;;22.00;99.06;97888.13;5073000;28;20647;-89
2023/06/20 00:58:33;;;;;;;7.63;6.87;;;;;;;21.82;100.00;97894.88;5072933;28;20310;-88
2023/06/20 01:00:59;;;;;;;7.33;6.63;;;;;;;21.67;100.00;97878.69;5070307;28;20222;-88
2023/06/20 01:03:26;;;;;;;8.10;6.87;;;;;;;21.58;100.00;97890.47;5070690;28;20207;-89
2023/06/20 01:06:03;;;;;;;8.93;8.00;;;;;;;21.48;100.00;97903.34;5071860;28;20199;-90
2023/06/20 01:08:37;;;;;;;7.57;6.87;;;;;;;21.29;100.00;97909.19;5071883;28;20306;-88
2023/06/20 01:11:13;;;;;;;8.10;7.30;;;;;;;21.08;100.00;97902.78;5072836;28;20223;-88
2023/06/20 01:13:49;;;;;;;12.37;7.97;;;;;;;20.90;100.00;97904.88;5073265;28;20214;-86
2023/06/20 01:16:24;;;;;;;11.40;7.83;;;;;;;20.77;100.00;97916.16;5072484;28;20678;-89
2023/06/20 01:19:00;;;;;;;8.37;7.57;;;;;;;20.63;100.00;97914.19;5072635;28;20282;-89
2023/06/20 01:21:32;;;;;;;8.63;7.60;;;;;;;20.51;100.00;97910.22;5072625;28;20581;-89
2023/06/20 01:24:07;;;;;;;9.37;7.67;;;;;;;20.39;100.00;97906.22;5072737;28;20207;-89
2023/06/20 01:26:38;;;;;;;8.20;7.50;;;;;;;20.29;100.00;97910.13;5072653;28;20712;-88
2023/06/20 01:29:13;;;;;;;8.47;7.50;;;;;;;20.27;100.00;97909.44;5072339;28;20259;-89
2023/06/20 01:31:42;;;;;;;8.53;7.73;;;;;;;20.15;100.00;97914.34;5072025;28;20238;-90
2023/06/20 01:34:16;;;;;;;8.33;7.53;;;;;;;20.06;100.00;97909.97;5072198;28;20207;-90
2023/06/20 01:36:47;;;;;;;9.73;7.87;;;;;;;20.00;100.00;97899.06;5072149;28;20262;-89
2023/06/20 01:39:19;;;;;;;8.70;7.90;;;;;;;19.92;100.00;97894.53;5071885;28;20211;-89
2023/06/20 01:41:49;;;;;;;8.13;7.33;;;;;;;19.85;100.00;97890.88;5071819;28;20207;-88
2023/06/20 01:44:17;;;;;;;7.80;7.00;;;;;;;19.78;100.00;97879.16;5071757;28;20689;-90
2023/06/20 01:46:47;;;;;;;7.70;6.90;;;;;;;19.81;100.00;97878.78;5071960;28;20235;-88
2023/06/20 01:49:16;;;;;;;7.60;5.97;;;;;;;19.71;100.00;97862.06;5071918;28;20211;-89
2023/06/20 01:51:43;;;;;;;6.67;5.40;;;;;;;19.67;100.00;97868.75;5072203;28;20238;-89
2023/06/20 01:54:11;;;;;;;6.33;5.70;;;;;;;19.59;100.00;97879.50;5072092;28;20700;-89
2023/06/20 01:56:40;;;;;;;6.20;5.60;;;;;;;19.58;100.00;97882.34;5072681;28;20227;-88
2023/06/20 01:59:08;;;;;;;6.47;5.87;;;;;;;19.43;100.00;97878.63;5073652;28;20207;-90
2023/06/20 02:01:35;;;;;;;6.03;5.43;;;;;;;19.33;100.00;97868.06;5073597;28;20218;-89
2023/06/20 02:04:04;;;;;;;6.60;6.00;;;;;;;19.28;100.00;97870.44;5073747;28;20215;-88
2023/06/20 02:06:32;;;;;;;6.90;5.80;;;;;;;19.27;100.00;97871.41;5072810;28;20223;-88
2023/06/20 02:08:59;;;;;;;7.00;6.30;;;;;;;19.25;100.00;97864.53;5071460;28;20780;-89
2023/06/20 02:11:26;;;;;;;6.67;5.97;;;;;;;19.23;100.00;97866.56;5070609;28;20243;-88
2023/06/20 02:13:55;;;;;;;7.73;7.00;;;;;;;19.20;100.00;97861.53;5071434;28;20214;-88
2023/06/20 02:16:23;;;;;;;7.70;6.90;;;;;;;19.19;100.00;97860.66;5071550;28;20474;-88
2023/06/20 02:18:50;;;;;;;7.43;6.70;;;;;;;19.19;100.00;97852.63;5071502;28;20212;-88
2023/06/20 02:21:22;;;;;;;7.40;6.67;;;;;;;19.19;100.00;97843.78;5071046;28;20207;-88
2023/06/20 02:23:52;;;;;;;7.30;6.60;;;;;;;19.25;100.00;97833.25;5071592;28;20632;-88
2023/06/20 02:26:20;;;;;;;7.03;6.33;;;;;;;19.22;100.00;97832.75;5071334;28;20207;-88
2023/06/20 02:28:50;;;;;;;8.73;6.90;;;;;;;19.24;100.00;97828.91;5071261;28;20203;-89
2023/06/20 02:31:21;;;;;;;6.57;5.97;;;;;;;19.27;100.00;97820.50;5070935;28;20709;-88
2023/06/20 02:33:50;;;;;;;6.77;6.07;;;;;;;19.29;100.00;97810.47;5071360;28;20692;-88
2023/06/20 02:36:19;;;;;;;6.43;5.83;;;;;;;19.28;100.00;97816.84;5071012;28;20697;-88
2023/06/20 02:38:46;;;;;;;6.60;6.00;;;;;;;19.20;100.00;97819.50;5072047;28;20226;-88
2023/06/20 02:41:13;;;;;;;6.90;6.30;;;;;;;19.12;100.00;97818.63;5072040;28;20674;-88
2023/06/20 02:43:39;;;;;;;6.77;6.07;;;;;;;19.08;100.00;97823.47;5072375;28;20210;-90
2023/06/20 02:46:11;;;;;;;5.87;5.27;;;;;;;19.04;100.00;97819.47;5072316;28;20218;-89
2023/06/20 02:48:47;;;;;;;7.17;6.50;;;;;;;18.92;100.00;97826.16;5086110;22;20738;-84
2023/06/20 02:51:22;;;;;;;6.53;5.93;;;;;;;18.84;100.00;97820.75;5070735;28;20260;-84
2023/06/20 02:53:56;;;;;;;6.90;6.20;;;;;;;18.74;100.00;97814.75;5070851;28;20206;-84
2023/06/20 02:56:24;;;;;;;6.47;5.87;;;;;;;18.66;100.00;97812.03;5070762;28;20206;-84
2023/06/20 02:58:53;;;;;;;6.80;6.10;;;;;;;18.65;100.00;97813.03;5070765;28;20227;-83
2023/06/20 03:01:24;;;;;;;6.83;6.13;;;;;;;18.56;100.00;97808.69;5070532;28;20207;-83
2023/06/20 03:03:56;;;;;;;6.93;6.23;;;;;;;18.57;100.00;97802.31;5071248;28;20184;-83
2023/06/20 03:06:27;;;;;;;7.03;6.33;;;;;;;18.50;100.00;97803.97;5071121;28;20216;-84
2023/06/20 03:08:54;;;;;;;6.90;6.20;;;;;;;18.46;100.00;97813.31;5070929;28;20231;-84
2023/06/20 03:11:22;;;;;;;7.10;6.40;;;;;;;18.43;100.00;97819.00;5070520;28;20235;-84
2023/06/20 03:13:49;;;;;;;7.97;7.10;;;;;;;18.49;100.00;97818.34;5070642;28;20207;-84
2023/06/20 03:16:15;;;;;;;7.70;6.90;;;;;;;18.52;100.00;97818.03;5071203;28;20572;-84
2023/06/20 03:18:42;;;;;;;7.20;6.60;;;;;;;18.51;100.00;97815.50;5070775;28;20238;-84
2023/06/20 03:21:09;;;;;;;7.20;6.50;;;;;;;18.44;100.00;97815.31;5070588;28;20230;-84
2023/06/20 03:23:37;;;;;;;7.40;6.63;;;;;;;18.41;100.00;97820.16;5070929;28;20211;-84
2023/06/20 03:26:04;;;;;;;8.87;6.37;;;;;;;18.36;100.00;97817.13;5074693;28;20304;-84
2023/06/20 03:28:30;;;;;;;7.10;6.40;;;;;;;18.34;100.00;97813.78;5074586;28;20630;-84
2023/06/20 03:30:57;;;;;;;7.10;6.47;;;;;;;18.31;100.00;97809.59;5074255;28;20231;-84
2023/06/20 03:33:23;;;;;;;7.20;6.30;;;;;;;18.31;100.00;97820.31;5074213;28;20218;-84
2023/06/20 03:35:50;;;;;;;7.83;7.07;;;;;;;18.28;100.00;97809.88;5074292;28;20622;-84
2023/06/20 03:38:18;;;;;;;7.37;6.67;;;;;;;18.26;100.00;97813.72;5074330;28;20258;-84
2023/06/20 03:40:44;;;;;;;7.97;7.17;;;;;;;18.27;100.00;97815.38;5074115;28;20214;-84
2023/06/20 03:43:11;;;;;;;7.10;6.40;;;;;;;18.30;100.00;97805.19;5074014;28;20207;-84
2023/06/20 03:45:37;;;;;;;7.27;6.57;;;;;;;18.30;100.00;97807.88;5074416;28;20582;-81
2023/06/20 03:48:04;;;;;;;7.40;6.70;;;;;;;18.28;100.00;97812.56;5074152;28;20239;-84
2023/06/20 03:50:30;;;;;;;7.77;7.00;;;;;;;18.27;100.00;97812.69;5073698;28;20684;-84
2023/06/20 03:52:57;;;;;;;8.07;7.27;;;;;;;18.21;100.00;97808.84;5074161;28;20211;-84
2023/06/20 03:55:25;;;;;;;7.80;7.00;;;;;;;18.23;100.00;97798.81;5073947;28;20215;-82
2023/06/20 03:57:51;;;;;;;8.03;6.90;;;;;;;18.23;100.00;97796.13;5073741;28;20231;-82
2023/06/20 04:00:18;;;;;;;8.10;7.27;;;;;;;18.24;100.00;97792.47;5073909;28;20210;-84
2023/06/20 04:02:46;;;;;;;8.07;7.27;;;;;;;18.29;100.00;97803.53;5075026;28;20326;-83
2023/06/20 04:05:12;;;;;;;7.30;6.50;;;;;;;18.33;100.00;97804.91;5077207;28;20674;-84
2023/06/20 04:07:41;;;;;;;8.40;7.43;;;;;;;18.36;100.00;97795.72;5077648;28;20227;-82
2023/06/20 04:10:09;;;;;;;8.20;7.40;;;;;;;18.37;100.00;97795.56;5073642;28;20301;-82
2023/06/20 04:12:37;;;;;;;7.83;7.03;;;;;;;18.40;100.00;97792.56;5073529;28;20658;-82
2023/06/20 04:15:05;;;;;;;7.33;6.63;;;;;;;18.46;100.00;97791.91;5073599;28;20211;-82
2023/06/20 04:17:31;;;;;;;8.73;7.37;;;;;;;18.49;100.00;97802.31;5073717;28;20227;-82
2023/06/20 04:19:59;;;;;;;10.17;8.00;;;;;;;18.50;100.00;97798.63;5073759;28;20211;-83
2023/06/20 04:22:26;;;;;;;9.23;8.10;;;;;;;18.53;100.00;97803.63;5073756;28;20628;-83
2023/06/20 04:24:53;;;;;;;8.57;7.13;;;;;;;18.59;100.00;97800.31;5073362;28;20224;-82
2023/06/20 04:27:19;;;;;;;8.53;7.63;;;;;;;18.65;100.00;97799.66;5073560;28;20235;-84
2023/06/20 04:29:47;;;;;;;9.10;7.73;;;;;;;18.74;100.00;97804.03;5073383;28;20212;-83
2023/06/20 04:32:14;;;;;;;9.60;8.60;;;;;;;18.80;100.00;97798.03;5073242;28;20227;-83
2023/06/20 04:34:40;;;;;;;9.37;8.47;;;;;;;18.84;100.00;97804.69;5073230;28;20215;-83
2023/06/20 04:37:07;;;;;;;8.93;8.03;;;;;;;18.94;100.00;97800.03;5073334;28;20242;-83
2023/06/20 04:39:33;;;;;;;11.43;8.60;;;;;;;19.05;100.00;97804.22;5073072;28;20234;-83
2023/06/20 04:42:00;;;;;;;8.87;7.97;;;;;;;19.10;100.00;97801.91;5073213;28;20214;-83
2023/06/20 04:44:26;;;;;;;8.73;7.87;;;;;;;19.12;100.00;97795.38;5073196;28;20231;-83
2023/06/20 04:46:55;;;;;;;10.87;8.30;;;;;;;19.19;100.00;97798.22;5072722;28;20692;-82
2023/06/20 04:49:22;;;;;;;8.23;7.37;;;;;;;19.20;100.00;97795.38;5072714;28;20694;-83
2023/06/20 04:51:48;;;;;;;7.67;6.97;;;;;;;19.23;100.00;97792.38;5073018;28;20686;-84
2023/06/20 04:54:15;;;;;;;8.87;7.97;;;;;;;19.27;100.00;97799.06;5073009;28;20207;-83
2023/06/20 04:56:41;;;;;;;8.47;7.57;;;;;;;19.31;100.00;97792.38;5073252;28;20247;-83
2023/06/20 04:59:08;;;;;;;8.57;7.67;;;;;;;19.44;100.00;97794.56;5072562;28;20207;-83
2023/06/20 05:01:35;;;;;;;8.67;7.73;;;;;;;19.67;100.00;97796.38;5072641;28;20203;-83
2023/06/20 05:04:04;;;;;;;9.33;7.07;;;;;;;20.07;100.00;97798.97;5072776;28;20250;-83
2023/06/20 05:06:31;;;;;;;7.40;6.60;;;;;;;20.64;100.00;97808.44;5072639;28;20207;-83
2023/06/20 05:08:59;;;;;;;7.70;6.47;;;;;;;21.18;100.00;97823.59;5072775;28;20227;-83
2023/06/20 05:11:25;;;;;;;6.40;5.80;;;;;;;21.79;100.00;97827.94;5072318;28;20227;-83
2023/06/20 05:13:52;;;;;;;7.73;5.60;;;;;;;22.16;100.00;97839.50;5072305;28;20208;-84
2023/06/20 05:16:18;;;;;;;5.10;4.60;;;;;;;22.55;100.00;97850.03;5072625;28;20616;-83
2023/06/20 05:18:46;;;;;;;6.97;5.40;;;;;;;22.84;100.00;97856.19;5072253;28;20227;-82
2023/06/20 05:21:14;;;;;;;5.00;4.50;;;;;;;23.04;100.00;97854.56;5072196;28;20204;-82
2023/06/20 05:23:40;;;;;;;6.50;4.80;;;;;;;23.38;100.00;97864.69;5072235;28;20211;-82
2023/06/20 05:26:06;;;;;;;5.13;4.63;;;;;;;23.63;100.00;97866.84;5072279;28;20203;-84
2023/06/20 05:28:33;;;;;;;4.70;4.30;;;;;;;23.92;100.00;97865.84;5072251;28;20227;-83
2023/06/20 05:30:59;;;;;;;4.60;4.20;;;;;;;24.12;97.89;97875.78;5071638;28;20214;-83
2023/06/20 05:33:26;;;;;;;5.57;4.00;;;;;;;24.49;96.34;97877.25;5072002;28;20581;-83
2023/06/20 05:35:52;;;;;;;5.37;4.00;;;;;;;24.80;94.38;97875.81;5072672;28;20215;-83
2023/06/20 05:38:20;;;;;;;4.73;4.20;;;;;;;24.95;88.92;97873.81;5073427;28;20239;-83
2023/06/20 05:40:47;;;;;;;4.80;4.30;;;;;;;25.24;87.88;97873.50;5071729;28;20278;-83
2023/06/20 05:43:13;;;;;;;4.20;3.90;;;;;;;25.54;86.59;97869.41;5074405;28;20306;-83
2023/06/20 05:45:40;;;;;;;4.20;3.80;;;;;;;25.89;84.32;97865.50;5072699;28;20214;-87
2023/06/20 05:48:08;;;;;;;4.27;3.57;;;;;;;26.24;81.43;97850.72;5071336;28;20242;-83
2023/06/20 05:50:35;;;;;;;4.63;3.80;;;;;;;26.24;75.67;97853.41;5071771;28;20207;-84
2023/06/20 05:53:02;;;;;;;4.37;3.77;;;;;;;26.30;76.24;97852.56;5071953;28;20227;-83
2023/06/20 05:55:30;;;;;;;4.70;3.80;;;;;;;26.46;74.40;97852.09;5072143;28;20594;-82
2023/06/20 05:57:57;;;;;;;4.30;3.87;;;;;;;26.64;75.00;97857.72;5072324;28;20223;-81
2023/06/20 06:00:23;;;;;;;3.88;3.47;;;;;;;26.97;75.26;97861.16;5071730;28;20203;-82
2023/06/20 06:02:50;;;;;;;4.25;3.35;;;;;;;27.23;72.13;97846.66;5076526;28;20207;-83
2023/06/20 06:05:16;;;;;;;5.60;4.10;;;;;;;27.41;71.29;97853.03;5080025;28;20209;-89
2023/06/20 06:07:43;;;;;;;3.75;3.40;;;;;;;27.55;70.12;97843.72;5077185;28;20223;-87
2023/06/20 06:10:10;;;;;;;4.78;3.42;;;;;;;27.75;69.19;97855.31;5083321;28;20216;-84
2023/06/20 06:12:40;;;;;;;3.97;3.58;;;;;;;27.91;64.85;97843.91;5082199;28;20257;-86
2023/06/20 06:15:08;;;;;;;4.03;3.63;;;;;;;27.99;63.37;97840.91;5087857;28;20203;-86
2023/06/20 06:17:35;;;;;;;4.05;3.65;;;;;;;28.16;62.53;97842.00;5094273;28;20231;-79
2023/06/20 06:20:03;;;;;;;4.47;3.55;;;;;;;28.23;64.48;97861.81;5095729;28;20203;-76
2023/06/20 06:22:29;;;;;;;3.60;3.17;;;;;;;28.42;62.69;97856.22;5096646;28;20230;-77
2023/06/20 06:24:56;;;;;;;4.13;3.70;;;;;;;28.53;62.48;97855.47;5096878;28;20247;-78
2023/06/20 06:27:22;;;;;;;4.28;3.88;;;;;;;28.64;64.77;97865.63;5096510;28;20203;-86
2023/06/20 06:29:50;;;;;;;4.82;3.83;;;;;;;28.71;63.25;97850.03;5096533;28;20210;-90
2023/06/20 06:32:19;;;;;;;5.97;4.15;;;;;;;28.77;61.47;97851.00;5096332;28;20249;-88
2023/06/20 06:34:46;;;;;;;6.68;3.75;;;;;;;28.57;59.71;97850.41;5096703;28;20192;-83
2023/06/20 06:37:13;;;;;;;4.43;3.88;;;;;;;28.14;61.14;97852.28;5096484;28;20211;-82
2023/06/20 06:39:39;;;;;;;5.15;3.85;;;;;;;28.13;61.23;97854.16;5096241;28;20258;-86
2023/06/20 06:42:07;;;;;;;4.03;3.67;;;;;;;28.26;63.25;97858.66;5094509;28;20203;-82
2023/06/20 06:44:33;;;;;;;4.85;3.50;;;;;;;28.45;61.67;97860.38;5092419;28;20195;-83
2023/06/20 06:47:01;;;;;;;4.88;4.00;;;;;;;28.09;58.84;97841.25;5094729;28;20216;-83
2023/06/20 06:49:28;;;;;;;5.25;4.10;;;;;;;28.23;60.86;97849.06;5095337;28;20213;-85
2023/06/20 06:51:56;;;;;;;4.95;3.92;;;;;;;28.27;59.57;97839.41;5096308;28;20246;-82
2023/06/20 06:54:23;;;;;;;4.85;3.72;;;;;;;28.08;59.56;97850.44;5095701;28;20191;-83
2023/06/20 06:56:52;;;;;;;4.95;3.78;;;;;;;28.30;61.28;97841.66;5095527;28;20212;-84
2023/06/20 06:59:18;;;;;;;6.93;4.35;;;;;;;28.50;59.58;97845.03;5098926;28;20198;-82
2023/06/20 07:01:46;;;;;;;4.72;4.10;;;;;;;28.61;60.79;97851.63;5094260;28;20241;-82
2023/06/20 07:04:15;;;;;;;5.60;3.97;;;;;;;28.77;61.55;97851.00;5094076;28;20203;-82
2023/06/20 07:06:41;;;;;;;4.88;4.38;;;;;;;28.85;60.46;97848.00;5090546;28;20268;-82
2023/06/20 07:09:08;;;;;;;4.07;3.67;;;;;;;28.74;60.97;97846.84;5077189;28;20207;-83
2023/06/20 07:11:34;;;;;;;4.72;3.97;;;;;;;28.59;61.02;97848.28;5078241;28;20231;-82
2023/06/20 07:14:01;;;;;;;4.30;3.90;;;;;;;28.18;62.45;97840.72;5076457;28;20211;-82
2023/06/20 07:16:31;;;;;;;4.53;4.07;;;;;;;27.67;63.69;97850.13;5074419;28;20582;-83
2023/06/20 07:18:58;;;;;;;4.82;4.28;;;;;;;27.12;66.45;97861.72;5074308;28;20234;-82
2023/06/20 07:21:26;;;;;;;4.60;4.20;;;;;;;26.74;68.44;97868.13;5074141;28;20203;-82
2023/06/20 07:23:52;;;;;;;5.25;4.60;;;;;;;26.50;72.56;97869.63;5074265;28;20203;-82
2023/06/20 07:26:19;;;;;;;4.97;4.22;;;;;;;26.34;72.25;97866.53;5074562;28;20211;-82
2023/06/20 07:28:45;;;;;;;5.40;4.90;;;;;;;26.24;71.81;97864.25;5075579;28;20430;-82
2023/06/20 07:31:16;;;;;;;5.53;4.53;;;;;;;26.08;71.02;97864.69;5079161;28;20218;-82
2023/06/20 07:33:43;;;;;;;6.13;4.70;;;;;;;25.97;72.00;97872.63;5078850;28;20582;-79
2023/06/20 07:36:09;;;;;;;5.60;4.80;;;;;;;25.86;71.65;97871.34;5078417;28;20203;-77
2023/06/20 07:38:37;;;;;;;5.10;4.10;;;;;;;25.97;70.81;97862.59;5076516;28;20242;-82
2023/06/20 07:41:03;;;;;;;6.85;4.80;;;;;;;25.96;71.92;97870.94;5080569;28;20214;-76
2023/06/20 07:43:30;;;;;;;4.72;4.18;;;;;;;25.97;71.83;97870.72;5087910;28;20199;-88
2023/06/20 07:45:56;;;;;;;5.45;4.78;;;;;;;25.97;71.88;97872.63;5089586;28;20208;-81
2023/06/20 07:48:24;;;;;;;5.03;4.38;;;;;;;26.02;70.56;97870.94;5093742;28;20231;-78
2023/06/20 07:50:50;;;;;;;5.20;4.65;;;;;;;25.99;71.70;97871.38;5094361;28;20295;-79
2023/06/20 07:53:17;;;;;;;7.80;5.03;;;;;;;25.95;70.65;97867.41;5094416;28;20237;-79
2023/06/20 07:55:45;;;;;;;8.43;4.70;;;;;;;25.96;72.24;97873.66;5093799;28;20217;-80
2023/06/20 07:58:11;;;;;;;6.10;4.70;;;;;;;26.03;70.98;97866.34;5076581;28;20231;-78
2023/06/20 08:00:40;;;;;;;5.93;4.87;;;;;;;26.09;72.60;97876.34;5074382;28;20208;-78
2023/06/20 08:03:07;;;;;;;6.10;4.97;;;;;;;26.14;70.68;97868.44;5073709;28;20207;-78
2023/06/20 08:05:33;;;;;;;5.73;4.73;;;;;;;26.21;72.11;97867.38;5073504;28;20237;-79
2023/06/20 08:08:00;;;;;;;7.20;5.10;;;;;;;26.34;71.38;97870.06;5073786;28;20228;-79
2023/06/20 08:10:26;;;;;;;5.63;5.03;;;;;;;26.43;70.94;97863.38;5072751;28;20243;-78
2023/06/20 08:12:54;;;;;;;5.18;4.65;;;;;;;26.49;68.41;97857.13;5073276;28;20242;-79
2023/06/20 08:15:21;;;;;;;5.30;4.80;;;;;;;26.60;69.53;97859.22;5073339;28;20215;-79
2023/06/20 08:17:47;;;;;;;5.68;5.10;;;;;;;26.68;68.59;97850.84;5073465;28;20230;-79
2023/06/20 08:20:14;;;;;;;6.15;4.57;;;;;;;26.75;68.64;97851.63;5073282;28;20211;-80
2023/06/20 08:22:40;;;;;;;5.90;5.25;;;;;;;26.83;66.45;97837.00;5073784;28;20204;-80
2023/06/20 08:25:07;;;;;;;5.95;5.00;;;;;;;26.87;65.36;97828.22;5073308;28;20203;-77
2023/06/20 08:27:34;;;;;;;6.18;5.07;;;;;;;27.00;65.67;97844.44;5073483;28;20236;-79
2023/06/20 08:30:03;;;;;;;6.05;4.70;;;;;;;27.07;65.83;97837.09;5072953;28;20213;-79
2023/06/20 08:32:29;;;;;;;5.43;4.90;;;;;;;27.09;65.22;97848.59;5071425;28;20223;-80
2023/06/20 08:34:56;;;;;;;7.13;5.18;;;;;;;27.15;62.83;97826.00;5071560;28;20218;-80
2023/06/20 08:37:23;;;;;;;5.90;5.30;;;;;;;27.24;63.10;97827.44;5072013;28;20235;-79
2023/06/20 08:39:49;;;;;;;5.80;5.20;;;;;;;27.31;63.73;97835.56;5072297;28;20294;-80
2023/06/20 08:42:16;;;;;;;6.13;5.20;;;;;;;27.30;63.83;97836.63;5072134;28;20290;-79
2023/06/20 08:44:43;;;;;;;7.57;5.15;;;;;;;27.33;62.61;97821.53;5072388;28;20207;-80
2023/06/20 08:49:39;;;;;;;7.93;5.18;;;;;;;27.41;63.10;97828.59;5049233;28;20642;-79
2023/06/20 08:52:10;;;;;;;7.70;5.50;;;;;;;27.48;64.10;97828.56;5051804;28;20208;-79
2023/06/20 08:54:41;;;;;;;6.13;5.10;;;;;;;27.57;63.04;97820.75;5052302;28;20220;-79
2023/06/20 08:57:07;;;;;;;6.15;5.53;;;;;;;27.65;61.83;97820.47;5052115;28;20671;-80
2023/06/20 08:59:35;;;;;;;6.97;5.60;;;;;;;27.72;63.45;97829.41;5051756;28;20219;-79
2023/06/20 09:02:01;;;;;;;6.00;5.28;;;;;;;27.70;59.30;97808.97;5051763;28;20298;-79
2023/06/20 09:04:28;;;;;;;6.40;5.13;;;;;;;27.79;61.88;97818.50;5052283;28;20212;-79
2023/06/20 09:06:57;;;;;;;7.10;5.40;;;;;;;27.97;61.67;97815.84;5052199;28;20204;-79
2023/06/20 09:09:24;;;;;;;6.60;5.50;;;;;;;28.03;59.70;97809.53;5051734;28;20224;-79
2023/06/20 09:11:56;;;;;;;6.57;5.35;;;;;;;28.08;57.41;97791.50;5051770;28;20204;-77
2023/06/20 09:14:25;;;;;;;6.57;5.65;;;;;;;28.06;55.06;97771.88;5051805;28;20240;-77
2023/06/20 09:16:53;;;;;;;5.88;5.38;;;;;;;28.16;57.90;97795.81;5051960;28;20211;-79
2023/06/20 09:19:19;;;;;;;6.53;5.68;;;;;;;28.24;58.18;97790.09;5051874;28;20227;-75
2023/06/20 09:21:46;;;;;;;7.03;5.50;;;;;;;28.31;59.83;97799.81;5051118;28;20671;-76
2023/06/20 09:24:17;;;;;;;6.57;5.40;;;;;;;28.44;61.01;97791.56;5052598;28;20208;-76
2023/06/20 09:26:44;;;;;;;6.47;5.70;;;;;;;28.53;59.33;97786.66;5051259;28;20747;-77
2023/06/20 09:29:14;;;;;;;6.20;5.45;;;;;;;28.60;56.51;97769.19;5051007;28;20243;-77
2023/06/20 09:31:42;;;;;;;6.85;5.40;;;;;;;28.69;57.52;97777.88;5051763;28;20216;-77
2023/06/20 09:34:12;;;;;;;6.38;5.50;;;;;;;28.80;58.34;97780.66;5051580;28;20235;-78
2023/06/20 09:36:40;;;;;;;6.38;5.78;;;;;;;28.95;54.70;97762.09;5052286;28;20216;-84
2023/06/20 09:39:10;;;;;;;8.20;5.32;;;;;;;29.02;54.86;97757.38;5051921;28;20224;-77
2023/06/20 09:41:44;;;;;;;6.07;5.47;;;;;;;29.07;55.62;97764.84;5052232;28;21305;-78
2023/06/20 09:44:10;;;;;;;6.03;4.90;;;;;;;29.18;56.64;97766.78;5052378;28;20204;-85
2023/06/20 09:46:37;;;;;;;6.70;5.55;;;;;;;29.27;52.43;97735.41;5052209;28;20216;-83
2023/06/20 09:49:05;;;;;;;5.75;5.20;;;;;;;29.22;53.38;97746.22;5051941;28;20232;-84
2023/06/20 09:51:34;;;;;;;8.00;5.50;;;;;;;29.27;53.03;97744.44;5052130;28;20404;-84
2023/06/20 09:54:05;;;;;;;6.93;5.78;;;;;;;29.25;51.72;97734.84;5051929;28;20227;-84
2023/06/20 09:56:40;;;;;;;6.57;5.32;;;;;;;29.34;53.11;97739.72;5052097;28;20222;-87
2023/06/20 09:59:10;;;;;;;6.57;5.70;;;;;;;29.39;52.94;97731.69;5051973;28;20227;-86
2023/06/20 10:01:39;;;;;;;6.40;5.60;;;;;;;29.53;53.76;97743.22;5049260;28;20208;-84
2023/06/20 10:04:07;;;;;;;7.47;5.53;;;;;;;29.48;51.70;97729.44;5049228;28;20619;-75
2023/06/20 10:06:37;;;;;;;6.55;5.50;;;;;;;29.50;51.19;97722.69;5049504;28;20212;-76
2023/06/20 10:09:05;;;;;;;6.00;5.40;;;;;;;29.62;51.90;97728.19;5050560;28;20227;-76
2023/06/20 10:11:32;;;;;;;5.80;5.20;;;;;;;29.74;52.47;97734.47;5051763;28;20298;-78
2023/06/20 10:13:59;;;;;;;7.22;5.30;;;;;;;29.94;50.85;97721.31;5051636;28;20228;-75
2023/06/20 10:16:29;;;;;;;6.93;5.38;;;;;;;29.95;50.12;97721.09;5051618;28;20222;-76
2023/06/20 10:18:56;;;;;;;6.60;5.32;;;;;;;29.97;47.80;97697.16;5051272;28;20232;-75
2023/06/20 10:21:53;;;;;;;6.85;5.25;;;;;;;30.01;46.39;97700.25;5051226;28;20218;-76
2023/06/20 10:24:19;;;;;;;7.15;4.97;;;;;;;30.03;47.88;97711.72;5051765;28;20257;-88
2023/06/20 10:26:52;;;;;;;5.47;4.97;;;;;;;30.06;46.71;97695.72;5051653;28;20238;-81
2023/06/20 10:29:19;;;;;;;5.75;4.70;;;;;;;30.08;46.40;97698.22;5051055;28;20553;-82
2023/06/20 10:31:57;;;;;;;5.30;4.80;;;;;;;30.15;47.88;97707.94;5058074;28;20204;-79
2023/06/20 10:34:33;;;;;;;5.05;4.55;;;;;;;30.35;46.59;97704.81;5062570;28;20291;-82
2023/06/20 10:37:38;;;;;;;5.10;4.60;;;;;;;30.37;45.27;97687.16;5060916;28;20222;-80
2023/06/20 10:40:08;;;;;;;5.38;4.43;;;;;;;30.44;45.27;97692.47;5048251;28;20222;-79
2023/06/20 10:42:39;;;;;;;4.88;4.32;;;;;;;30.58;45.62;97691.13;5052760;28;20303;-78
2023/06/20 10:45:17;;;;;;;5.20;4.28;;;;;;;30.63;43.55;97674.84;5051357;28;20678;-84
2023/06/20 10:47:45;;;;;;;6.78;4.88;;;;;;;30.79;42.22;97652.25;5051568;28;20243;-84
2023/06/20 10:50:12;;;;;;;6.25;4.53;;;;;;;30.88;41.03;97656.25;5051498;28;20204;-81
2023/06/20 10:52:39;;;;;;;6.65;4.97;;;;;;;30.98;44.56;97697.41;5051833;28;20214;-84
2023/06/20 10:55:08;;;;;;;6.85;4.82;;;;;;;31.01;43.46;97688.72;5051521;28;20216;-83
2023/06/20 10:57:35;;;;;;;6.18;4.63;;;;;;;31.09;43.13;97682.84;5051784;28;20285;-80
2023/06/20 11:00:07;;;;;;;5.50;5.00;;;;;;;31.18;43.76;97692.34;5053339;28;20219;-91
2023/06/20 11:02:34;;;;;;;5.70;4.50;;;;;;;31.36;44.64;97694.84;5052509;28;20218;-90
2023/06/20 11:05:04;;;;;;;6.40;5.00;;;;;;;31.37;42.44;97669.97;5051765;28;20207;-90
2023/06/20 11:07:30;;;;;;;5.78;4.53;;;;;;;31.44;43.04;97678.03;5051430;28;20278;-90
2023/06/20 11:09:57;;;;;;;5.50;4.72;;;;;;;31.47;42.67;97674.81;5050052;28;20211;-88
2023/06/20 11:12:23;;;;;;;5.22;4.70;;;;;;;31.60;42.49;97671.75;5049048;28;20223;-89
2023/06/20 11:14:50;;;;;;;5.45;4.68;;;;;;;31.60;42.57;97671.75;5049000;28;20242;-89
2023/06/20 11:17:17;;;;;;;5.43;4.80;;;;;;;31.54;42.74;97675.47;5048854;28;20212;-89
2023/06/20 11:19:43;;;;;;;5.18;4.50;;;;;;;31.58;42.12;97666.50;5051707;28;20593;-89
2023/06/20 11:22:11;;;;;;;5.85;4.85;;;;;;;31.62;41.28;97654.03;5059694;28;20200;-88
2023/06/20 11:24:38;;;;;;;5.20;4.70;;;;;;;31.68;41.24;97663.09;5074300;28;20260;-89
2023/06/20 11:27:12;;;;;;;6.32;4.75;;;;;;;31.65;40.92;97653.50;5075197;28;20280;-89
2023/06/20 11:29:39;;;;;;;6.60;4.93;;;;;;;31.68;39.65;97641.25;5064858;28;20208;-89
2023/06/20 11:32:09;;;;;;;5.45;4.75;;;;;;;31.68;39.83;97638.50;5053424;28;20215;-89
2023/06/20 11:34:53;;;;;;;4.90;4.38;;;;;;;31.74;40.21;97635.66;5053367;28;20258;-89
2023/06/20 11:37:21;;;;;;;5.63;4.55;;;;;;;31.77;38.00;97606.97;5052791;28;20227;-89